createdAt,value
2017-11-08T00:01:53.239Z,2.23
2017-11-08T00:04:21.080Z,4.20
2017-11-08T00:06:48.896Z,5.30
2017-11-08T00:09:17.744Z,2.73
2017-11-08T00:11:46.430Z,2.97
2017-11-08T00:14:15.233Z,3.97
2017-11-08T00:16:43.023Z,1.17
2017-11-08T00:19:11.002Z,6.10
2017-11-08T00:21:44.476Z,2.53
2017-11-08T00:24:14.350Z,3.27
2017-11-08T00:26:42.174Z,1.97
2017-11-08T00:29:09.957Z,3.73
2017-11-08T00:31:37.798Z,3.00
2017-11-08T00:34:05.580Z,2.23
2017-11-08T00:36:33.392Z,3.03
2017-11-08T00:39:02.821Z,3.63
2017-11-08T00:41:30.912Z,3.80
2017-11-08T00:43:58.720Z,2.30
2017-11-08T00:46:27.504Z,4.10
2017-11-08T00:48:58.780Z,3.57
2017-11-08T00:51:26.594Z,3.30
2017-11-08T00:53:54.400Z,3.53
2017-11-08T00:56:23.223Z,1.62
2017-11-08T00:58:51.113Z,2.07
2017-11-08T01:01:18.896Z,4.17
2017-11-08T01:03:46.755Z,3.20
2017-11-08T01:06:14.903Z,2.50
2017-11-08T01:08:42.739Z,4.10
2017-11-08T01:11:10.616Z,7.23
2017-11-08T01:13:38.492Z,4.00
2017-11-08T01:16:06.301Z,4.37
2017-11-08T01:18:34.198Z,6.30
2017-11-08T01:21:02.054Z,2.93
2017-11-08T01:23:30.643Z,2.90
2017-11-08T01:25:58.471Z,2.07
2017-11-08T01:28:26.283Z,2.60
2017-11-08T01:30:54.112Z,2.50
2017-11-08T01:33:21.898Z,5.10
2017-11-08T01:35:51.243Z,3.47
2017-11-08T01:38:21.927Z,3.83
2017-11-08T01:40:51.396Z,1.77
2017-11-08T01:43:19.216Z,4.03
2017-11-08T01:45:47.245Z,1.33
2017-11-08T01:48:16.893Z,3.43
2017-11-08T01:50:51.428Z,6.57
2017-11-08T01:53:19.337Z,2.90
2017-11-08T01:55:47.231Z,2.20
2017-11-08T01:58:15.902Z,2.60
2017-11-08T02:00:43.756Z,4.77
2017-11-08T02:03:12.979Z,2.80
2017-11-08T02:05:41.936Z,2.70
2017-11-08T02:08:09.839Z,3.07
2017-11-08T02:10:38.420Z,3.67
2017-11-08T02:13:07.390Z,2.13
2017-11-08T02:15:35.352Z,2.70
2017-11-08T02:18:07.353Z,2.70
2017-11-08T02:20:35.949Z,1.93
2017-11-08T02:23:05.243Z,2.93
2017-11-08T02:25:33.145Z,2.53
2017-11-08T02:28:01.886Z,3.90
2017-11-08T02:30:30.521Z,1.90
2017-11-08T02:33:00.661Z,6.17
2017-11-08T02:35:28.577Z,2.23
2017-11-08T02:37:56.635Z,1.97
2017-11-08T02:40:24.556Z,2.50
2017-11-08T02:42:52.618Z,6.63
2017-11-08T02:45:20.509Z,2.80
2017-11-08T02:47:55.456Z,2.20
2017-11-08T02:50:24.055Z,1.20
2017-11-08T02:52:51.924Z,2.70
2017-11-08T02:55:19.761Z,2.77
2017-11-08T02:57:47.565Z,1.40
2017-11-08T03:00:15.387Z,2.63
2017-11-08T03:02:48.776Z,2.60
2017-11-08T03:05:18.355Z,3.53
2017-11-08T03:07:46.946Z,1.70
2017-11-08T03:10:14.813Z,3.80
2017-11-08T03:12:42.624Z,4.37
2017-11-08T03:15:11.192Z,2.70
2017-11-08T03:17:40.272Z,2.23
2017-11-08T03:20:08.093Z,1.20
2017-11-08T03:22:36.002Z,2.67
2017-11-08T03:25:03.870Z,3.37
2017-11-08T03:27:31.773Z,3.90
2017-11-08T03:29:59.617Z,3.97
2017-11-08T03:32:27.421Z,1.50
2017-11-08T03:34:56.506Z,4.30
2017-11-08T03:37:24.414Z,2.00
2017-11-08T03:39:52.216Z,3.07
2017-11-08T03:42:20.134Z,3.50
2017-11-08T03:44:47.968Z,2.20
2017-11-08T03:47:15.773Z,2.40
2017-11-08T03:49:43.668Z,1.73
2017-11-08T03:52:11.462Z,1.90
2017-11-08T03:54:40.195Z,2.00
2017-11-08T03:57:08.003Z,2.80
2017-11-08T03:59:35.788Z,1.73
2017-11-08T04:02:03.704Z,1.50
2017-11-08T04:04:31.513Z,2.03
2017-11-08T04:06:59.396Z,2.13
2017-11-08T04:09:27.351Z,2.30
2017-11-08T04:11:55.203Z,1.63
2017-11-08T04:14:23.803Z,1.20
2017-11-08T04:16:51.661Z,3.70
2017-11-08T04:19:19.590Z,2.73
2017-11-08T04:21:47.421Z,1.93
2017-11-08T04:24:15.326Z,4.13
2017-11-08T04:26:43.230Z,2.70
2017-11-08T04:29:11.051Z,1.80
2017-11-08T04:31:38.983Z,3.00
2017-11-08T04:34:06.901Z,2.40
2017-11-08T04:36:35.518Z,2.50
2017-11-08T04:39:03.489Z,0.93
2017-11-08T04:41:32.424Z,4.93
2017-11-08T04:44:00.360Z,5.73
2017-11-08T04:46:28.390Z,1.63
2017-11-08T04:48:57.026Z,1.33
2017-11-08T04:51:24.986Z,2.27
2017-11-08T04:53:52.828Z,3.70
2017-11-08T04:56:20.779Z,4.80
2017-11-08T04:58:49.424Z,1.43
2017-11-08T05:01:17.365Z,4.40
2017-11-08T05:03:45.238Z,1.90
2017-11-08T05:06:13.832Z,2.60
2017-11-08T05:08:41.703Z,1.63
2017-11-08T05:11:09.546Z,13.03
2017-11-08T05:13:37.440Z,1.80
2017-11-08T05:16:05.439Z,1.80
2017-11-08T05:18:34.114Z,3.23
2017-11-08T05:21:02.587Z,3.80
2017-11-08T05:23:30.417Z,1.67
2017-11-08T05:25:58.303Z,4.83
2017-11-08T05:28:26.186Z,4.13
2017-11-08T05:30:54.210Z,2.37
2017-11-08T05:33:22.086Z,1.30
2017-11-08T05:35:51.728Z,1.77
2017-11-08T05:38:19.715Z,2.60
2017-11-08T05:40:47.569Z,3.60
2017-11-08T05:43:15.400Z,1.43
2017-11-08T05:45:43.274Z,2.73
2017-11-08T05:48:11.206Z,3.40
2017-11-08T05:50:39.074Z,1.20
2017-11-08T05:53:07.766Z,2.37
2017-11-08T05:55:35.660Z,3.90
2017-11-08T05:58:04.476Z,2.47
2017-11-08T06:00:32.349Z,1.73
2017-11-08T06:03:00.181Z,2.07
2017-11-08T06:05:28.027Z,3.27
2017-11-08T06:07:55.916Z,3.80
2017-11-08T06:10:23.832Z,2.77
2017-11-08T06:12:52.473Z,1.47
2017-11-08T06:15:20.517Z,1.57
2017-11-08T06:17:48.383Z,1.00
2017-11-08T06:20:16.231Z,2.93
2017-11-08T06:22:44.934Z,5.37
2017-11-08T06:25:12.793Z,5.47
2017-11-08T06:27:40.674Z,2.47
2017-11-08T06:30:08.541Z,2.43
2017-11-08T06:32:37.092Z,5.13
2017-11-08T06:35:05.815Z,1.97
2017-11-08T06:37:33.632Z,1.97
2017-11-08T06:40:01.452Z,1.50
2017-11-08T06:42:29.350Z,7.03
2017-11-08T06:45:06.425Z,2.13
2017-11-08T06:47:34.322Z,3.17
2017-11-08T06:50:02.987Z,1.90
2017-11-08T06:52:30.804Z,4.13
2017-11-08T06:54:59.387Z,3.70
2017-11-08T06:57:27.349Z,6.47
2017-11-08T06:59:55.213Z,9.57
2017-11-08T07:02:23.108Z,10.73
2017-11-08T07:04:50.938Z,9.40
2017-11-08T07:07:18.769Z,10.70
2017-11-08T07:09:46.626Z,14.73
2017-11-08T07:12:14.524Z,6.83
2017-11-08T07:14:43.123Z,14.40
2017-11-08T07:17:11.024Z,11.80
2017-11-08T07:19:38.846Z,14.80
2017-11-08T07:22:06.704Z,10.70
2017-11-08T07:24:35.876Z,6.30
2017-11-08T07:27:03.773Z,6.90
2017-11-08T07:29:31.626Z,7.00
2017-11-08T07:32:00.315Z,19.23
2017-11-08T07:34:28.207Z,27.47
2017-11-08T07:36:56.397Z,58.20
2017-11-08T07:39:24.277Z,53.10
2017-11-08T07:41:52.165Z,44.47
2017-11-08T07:44:19.999Z,33.70
2017-11-08T07:46:47.892Z,13.27
2017-11-08T07:49:15.749Z,13.83
2017-11-08T07:51:43.597Z,32.00
2017-11-08T07:54:12.500Z,42.33
2017-11-08T07:56:40.329Z,78.10
2017-11-08T07:59:08.185Z,87.73
2017-11-08T08:01:36.267Z,67.13
2017-11-08T08:04:04.232Z,54.00
2017-11-08T08:06:32.154Z,52.27
2017-11-08T08:09:00.041Z,36.93
2017-11-08T08:11:28.704Z,42.30
2017-11-08T08:13:59.396Z,27.40
2017-11-08T08:16:27.289Z,31.13
2017-11-08T08:18:55.304Z,26.17
2017-11-08T08:21:24.137Z,24.87
2017-11-08T08:23:52.028Z,23.43
2017-11-08T08:26:37.007Z,21.00
2017-11-08T08:29:04.983Z,15.03
2017-11-08T08:31:32.891Z,13.93
2017-11-08T08:34:00.787Z,8.93
2017-11-08T08:36:28.647Z,12.05
2017-11-08T08:38:56.543Z,14.40
2017-11-08T08:41:24.476Z,19.50
2017-11-08T08:43:52.324Z,7.73
2017-11-08T08:46:20.206Z,7.90
2017-11-08T08:48:52.030Z,7.33
2017-11-08T08:51:20.678Z,7.10
2017-11-08T08:53:48.506Z,10.17
2017-11-08T08:56:16.396Z,6.37
2017-11-08T08:58:44.234Z,5.47
2017-11-08T09:01:12.092Z,8.80
2017-11-08T09:03:39.937Z,5.57
2017-11-08T09:06:08.589Z,11.00
2017-11-08T09:08:36.422Z,4.20
2017-11-08T09:11:04.290Z,6.27
2017-11-08T09:13:32.187Z,4.80
2017-11-08T09:16:00.132Z,7.50
2017-11-08T09:18:27.963Z,8.33
2017-11-08T09:20:56.684Z,3.73
2017-11-08T09:23:25.434Z,2.57
2017-11-08T09:25:53.388Z,5.03
2017-11-08T09:28:22.037Z,7.43
2017-11-08T09:30:50.060Z,3.80
2017-11-08T09:33:18.734Z,2.77
2017-11-08T09:35:47.732Z,5.07
2017-11-08T09:38:17.015Z,5.97
2017-11-08T09:40:46.078Z,7.13
2017-11-08T09:43:19.670Z,13.87
2017-11-08T09:45:47.578Z,3.50
2017-11-08T09:48:15.640Z,4.30
2017-11-08T09:50:43.534Z,2.00
2017-11-08T09:53:12.174Z,3.70
2017-11-08T09:55:44.008Z,10.27
2017-11-08T09:58:12.744Z,7.53
2017-11-08T10:00:40.648Z,5.20
2017-11-08T10:03:09.159Z,1.97
2017-11-08T10:05:37.079Z,5.47
2017-11-08T10:08:05.748Z,7.60
2017-11-08T10:10:33.675Z,5.20
2017-11-08T10:13:07.196Z,2.80
2017-11-08T10:15:35.088Z,4.17
2017-11-08T10:18:03.744Z,3.90
2017-11-08T10:20:31.688Z,5.43
2017-11-08T10:23:00.978Z,2.73
2017-11-08T10:25:29.596Z,8.47
2017-11-08T10:27:57.684Z,9.70
2017-11-08T10:30:26.317Z,5.30
2017-11-08T10:32:54.261Z,6.53
2017-11-08T10:35:22.149Z,11.90
2017-11-08T10:37:50.100Z,5.77
2017-11-08T10:40:19.103Z,2.23
2017-11-08T10:42:47.206Z,8.10
2017-11-08T10:45:15.143Z,8.20
2017-11-08T10:47:43.186Z,2.53
2017-11-08T10:50:11.084Z,5.70
2017-11-08T10:52:39.950Z,3.20
2017-11-08T10:55:07.922Z,5.73
2017-11-08T10:57:36.721Z,7.20
2017-11-08T11:00:24.736Z,9.60
2017-11-08T11:03:07.525Z,5.10
2017-11-08T11:05:36.215Z,11.83
2017-11-08T11:08:06.049Z,5.43
2017-11-08T11:10:34.094Z,7.73
2017-11-08T11:13:04.022Z,9.70
2017-11-08T11:15:32.884Z,4.67
2017-11-08T11:18:01.043Z,9.57
2017-11-08T11:20:28.928Z,11.50
2017-11-08T11:22:57.000Z,10.93
2017-11-08T11:25:26.734Z,15.80
2017-11-08T11:27:55.043Z,10.73
2017-11-08T11:30:25.987Z,5.67
2017-11-08T11:32:54.294Z,8.93
2017-11-08T11:35:22.229Z,4.90
2017-11-08T11:37:50.488Z,5.50
2017-11-08T11:40:18.587Z,7.67
2017-11-08T11:42:46.827Z,6.80
2017-11-08T11:45:14.919Z,9.40
2017-11-08T11:47:42.826Z,3.97
2017-11-08T11:50:10.765Z,5.17
2017-11-08T11:52:38.733Z,6.00
2017-11-08T11:55:06.654Z,4.90
2017-11-08T11:57:35.332Z,5.67
2017-11-08T12:00:04.204Z,7.53
2017-11-08T12:02:32.291Z,5.80
2017-11-08T12:05:00.275Z,4.50
2017-11-08T12:07:29.090Z,6.23
2017-11-08T12:09:57.447Z,7.50
2017-11-08T12:12:26.169Z,4.70
2017-11-08T12:14:54.126Z,5.33
2017-11-08T12:17:22.164Z,2.40
2017-11-08T12:19:50.886Z,3.23
2017-11-08T12:22:19.750Z,4.53
2017-11-08T12:24:48.623Z,4.20
2017-11-08T12:27:20.265Z,4.90
2017-11-08T12:29:48.250Z,3.77
2017-11-08T12:32:16.264Z,2.83
2017-11-08T12:34:59.170Z,2.60
2017-11-08T12:37:28.086Z,7.93
2017-11-08T12:39:56.966Z,2.33
2017-11-08T12:42:26.869Z,3.90
2017-11-08T12:44:57.849Z,2.23
2017-11-08T12:47:25.780Z,4.83
2017-11-08T12:49:53.743Z,4.33
2017-11-08T12:52:21.744Z,1.67
2017-11-08T12:54:49.671Z,7.43
2017-11-08T12:57:18.411Z,3.80
2017-11-08T12:59:46.344Z,5.70
2017-11-08T13:02:14.250Z,4.87
2017-11-08T13:04:42.174Z,5.83
2017-11-08T13:07:10.080Z,4.73
2017-11-08T13:09:38.015Z,3.23
2017-11-08T13:12:06.038Z,9.03
2017-11-08T13:14:34.933Z,2.60
2017-11-08T13:17:02.900Z,4.27
2017-11-08T13:19:30.977Z,2.13
2017-11-08T13:21:58.968Z,5.57
2017-11-08T13:24:26.944Z,4.60
2017-11-08T13:26:55.323Z,2.30
2017-11-08T13:29:23.290Z,5.50
2017-11-08T13:31:54.561Z,3.57
2017-11-08T13:34:23.313Z,3.67
2017-11-08T13:36:51.309Z,5.10
2017-11-08T13:39:19.256Z,10.47
2017-11-08T13:41:54.681Z,12.50
2017-11-08T13:44:23.493Z,3.47
2017-11-08T13:46:51.596Z,3.23
2017-11-08T13:49:20.277Z,4.37
2017-11-08T13:51:48.292Z,3.87
2017-11-08T13:54:17.415Z,7.13
2017-11-08T13:56:46.337Z,5.47
2017-11-08T13:59:14.278Z,3.80
2017-11-08T14:01:42.593Z,3.30
2017-11-08T14:04:10.592Z,3.20
2017-11-08T14:06:39.291Z,2.10
2017-11-08T14:09:08.001Z,3.90
2017-11-08T14:11:36.240Z,8.37
2017-11-08T14:14:04.562Z,5.60
2017-11-08T14:16:32.488Z,6.53
2017-11-08T14:19:01.166Z,5.13
2017-11-08T14:21:29.066Z,6.90
2017-11-08T14:23:56.968Z,3.60
2017-11-08T14:26:24.860Z,3.80
2017-11-08T14:28:52.702Z,8.73
2017-11-08T14:31:20.578Z,5.17
2017-11-08T14:33:48.518Z,7.37
2017-11-08T14:36:16.444Z,2.90
2017-11-08T14:38:44.313Z,1.80
2017-11-08T14:41:12.976Z,4.53
2017-11-08T14:43:40.876Z,6.30
2017-11-08T14:46:09.493Z,1.93
2017-11-08T14:48:37.373Z,3.03
2017-11-08T14:51:05.248Z,3.80
2017-11-08T14:53:33.130Z,3.53
2017-11-08T14:56:02.482Z,3.47
2017-11-08T14:58:30.664Z,3.03
2017-11-08T15:01:01.226Z,1.53
2017-11-08T15:03:29.882Z,1.60
2017-11-08T15:05:57.719Z,2.10
2017-11-08T15:08:26.571Z,6.13
2017-11-08T15:10:58.318Z,2.00
2017-11-08T15:13:26.153Z,5.20
2017-11-08T15:15:54.049Z,5.80
2017-11-08T15:18:21.947Z,8.20
2017-11-08T15:20:52.368Z,7.17
2017-11-08T15:23:21.644Z,3.65
2017-11-08T15:25:51.679Z,23.73
2017-11-08T15:28:19.774Z,7.30
2017-11-08T15:30:48.637Z,3.43
2017-11-08T15:33:16.529Z,6.30
2017-11-08T15:35:44.383Z,3.37
2017-11-08T15:38:12.218Z,7.83
2017-11-08T15:40:40.124Z,10.63
2017-11-08T15:43:08.781Z,5.43
2017-11-08T15:45:36.694Z,7.77
2017-11-08T15:48:05.435Z,4.00
2017-11-08T15:50:33.269Z,3.20
2017-11-08T15:53:01.221Z,11.67
2017-11-08T15:55:29.845Z,6.60
2017-11-08T15:57:57.746Z,9.00
2017-11-08T16:00:25.611Z,5.57
2017-11-08T16:02:53.653Z,11.43
2017-11-08T16:05:21.523Z,8.40
2017-11-08T16:07:49.548Z,5.20
2017-11-08T16:10:17.450Z,4.30
2017-11-08T16:12:45.357Z,7.40
2017-11-08T16:15:13.317Z,6.53
2017-11-08T16:17:41.276Z,3.73
2017-11-08T16:20:14.832Z,10.00
2017-11-08T16:22:42.721Z,4.60
2017-11-08T16:25:10.580Z,5.07
2017-11-08T16:27:38.434Z,2.57
2017-11-08T16:30:06.288Z,7.33
2017-11-08T16:32:34.228Z,3.10
2017-11-08T16:35:02.849Z,3.63
2017-11-08T16:37:30.665Z,6.50
2017-11-08T16:39:58.557Z,5.30
2017-11-08T16:42:27.231Z,3.30
2017-11-08T16:44:55.850Z,13.10
2017-11-08T16:47:23.868Z,12.60
2017-11-08T16:49:51.885Z,5.37
2017-11-08T16:52:19.751Z,5.43
2017-11-08T16:54:47.596Z,5.30
2017-11-08T16:57:15.496Z,7.27
2017-11-08T16:59:43.649Z,9.77
2017-11-08T17:02:11.484Z,9.93
2017-11-08T17:04:39.417Z,5.27
2017-11-08T17:07:07.263Z,4.37
2017-11-08T17:09:35.175Z,7.80
2017-11-08T17:12:03.176Z,10.10
2017-11-08T17:14:31.188Z,7.97
2017-11-08T17:16:59.175Z,8.20
2017-11-08T17:19:27.054Z,6.50
2017-11-08T17:21:54.898Z,4.80
2017-11-08T17:24:22.856Z,14.13
2017-11-08T17:26:50.809Z,14.13
2017-11-08T17:29:18.743Z,18.23
2017-11-08T17:31:47.357Z,13.50
2017-11-08T17:34:15.218Z,6.13
2017-11-08T17:36:43.110Z,14.30
2017-11-08T17:39:10.974Z,17.33
2017-11-08T17:41:38.917Z,18.83
2017-11-08T17:44:06.863Z,3.30
2017-11-08T17:46:35.522Z,14.03
2017-11-08T17:49:03.427Z,4.73
2017-11-08T17:51:31.377Z,6.63
2017-11-08T17:54:00.090Z,6.97
2017-11-08T17:56:28.057Z,16.23
2017-11-08T17:58:55.894Z,19.13
2017-11-08T18:01:24.560Z,7.67
2017-11-08T18:03:52.434Z,8.33
2017-11-08T18:06:21.488Z,7.20
2017-11-08T18:08:50.038Z,10.43
2017-11-08T18:11:20.118Z,6.13
2017-11-08T18:13:50.583Z,6.95
2017-11-08T18:16:20.985Z,12.83
2017-11-08T18:18:49.758Z,3.57
2017-11-08T18:21:17.564Z,17.17
2017-11-08T18:23:46.152Z,8.73
2017-11-08T18:26:13.986Z,5.77
2017-11-08T18:28:41.873Z,9.10
2017-11-08T18:31:10.638Z,8.30
2017-11-08T18:33:38.533Z,10.40
2017-11-08T18:36:07.098Z,14.63
2017-11-08T18:38:34.938Z,12.73
2017-11-08T18:41:02.793Z,18.43
2017-11-08T18:43:30.644Z,10.63
2017-11-08T18:45:58.654Z,17.67
2017-11-08T18:48:26.564Z,6.73
2017-11-08T18:50:54.491Z,4.27
2017-11-08T18:53:22.376Z,3.20
2017-11-08T18:55:51.062Z,9.40
2017-11-08T18:58:19.621Z,6.73
2017-11-08T19:00:47.465Z,7.50
2017-11-08T19:03:15.293Z,25.80
2017-11-08T19:05:43.139Z,20.10
2017-11-08T19:08:11.740Z,14.90
2017-11-08T19:10:40.347Z,19.07
2017-11-08T19:13:08.154Z,25.90
2017-11-08T19:15:36.464Z,40.03
2017-11-08T19:18:05.050Z,34.57
2017-11-08T19:20:32.891Z,28.33
2017-11-08T19:23:00.718Z,19.40
2017-11-08T19:25:28.549Z,14.10
2017-11-08T19:27:56.469Z,19.27
2017-11-08T19:30:24.366Z,6.03
2017-11-08T19:32:52.959Z,9.87
2017-11-08T19:35:21.616Z,10.87
2017-11-08T19:37:49.531Z,4.20
2017-11-08T19:40:17.355Z,9.53
2017-11-08T19:42:45.324Z,6.30
2017-11-08T19:45:13.160Z,13.37
2017-11-08T19:47:41.021Z,4.37
2017-11-08T19:50:08.941Z,3.63
2017-11-08T19:52:37.564Z,7.33
2017-11-08T19:55:06.138Z,5.60
2017-11-08T19:57:37.870Z,13.33
2017-11-08T20:00:05.936Z,8.03
2017-11-08T20:02:33.822Z,6.90
2017-11-08T20:05:02.055Z,3.60
2017-11-08T20:07:30.130Z,2.43
2017-11-08T20:09:58.024Z,7.17
2017-11-08T20:12:26.821Z,4.67
2017-11-08T20:14:55.121Z,4.30
2017-11-08T20:17:23.826Z,8.00
2017-11-08T20:19:51.800Z,10.47
2017-11-08T20:22:19.646Z,7.13
2017-11-08T20:24:47.504Z,5.67
2017-11-08T20:27:15.338Z,6.43
2017-11-08T20:29:43.308Z,5.27
2017-11-08T20:32:11.845Z,4.50
2017-11-08T20:34:40.487Z,9.27
2017-11-08T20:37:08.418Z,3.13
2017-11-08T20:39:37.139Z,7.73
2017-11-08T20:42:05.853Z,6.70
2017-11-08T20:44:33.705Z,4.10
2017-11-08T20:47:01.524Z,4.80
2017-11-08T20:49:30.221Z,21.83
2017-11-08T20:51:58.793Z,9.23
2017-11-08T20:54:26.908Z,7.17
2017-11-08T20:56:54.705Z,7.27
2017-11-08T20:59:36.338Z,3.07
2017-11-08T21:02:04.283Z,3.70
2017-11-08T21:07:07.509Z,11.53
2017-11-08T21:09:43.487Z,6.30
2017-11-08T21:12:12.190Z,3.70
2017-11-08T21:14:40.139Z,4.17
2017-11-08T21:17:08.204Z,4.83
2017-11-08T21:19:36.197Z,8.27
2017-11-08T21:22:04.176Z,6.80
2017-11-08T21:24:32.716Z,8.10
2017-11-08T21:27:00.621Z,4.37
2017-11-08T21:29:28.496Z,13.33
2017-11-08T21:31:56.326Z,7.13
2017-11-08T21:34:24.286Z,9.20
2017-11-08T21:36:53.908Z,11.97
2017-11-08T21:39:21.838Z,9.90
2017-11-08T21:41:50.663Z,8.10
2017-11-08T21:44:18.521Z,19.90
2017-11-08T21:46:46.367Z,11.30
2017-11-08T21:49:15.057Z,14.83
2017-11-08T21:51:43.921Z,9.10
2017-11-08T21:54:11.858Z,9.23
2017-11-08T21:56:39.679Z,11.70
2017-11-08T21:59:08.331Z,18.23
2017-11-08T22:01:36.216Z,8.10
2017-11-08T22:04:04.102Z,8.80
2017-11-08T22:06:32.689Z,20.70
2017-11-08T22:09:01.369Z,20.57
2017-11-08T22:11:31.669Z,7.37
2017-11-08T22:13:59.557Z,11.73
2017-11-08T22:16:28.124Z,15.73
2017-11-08T22:18:56.335Z,8.10
2017-11-08T22:21:24.206Z,6.80
2017-11-08T22:23:52.485Z,7.87
2017-11-08T22:26:20.365Z,8.30
2017-11-08T22:28:48.207Z,5.23
2017-11-08T22:31:17.286Z,10.93
2017-11-08T22:33:45.894Z,6.83
2017-11-08T22:36:13.854Z,8.90
2017-11-08T22:38:41.715Z,7.10
2017-11-08T22:41:10.349Z,7.00
2017-11-08T22:43:38.287Z,10.67
2017-11-08T22:46:06.358Z,8.97
2017-11-08T22:48:34.154Z,5.87
2017-11-08T22:51:01.957Z,8.03
2017-11-08T22:53:30.579Z,11.07
2017-11-08T22:55:58.445Z,3.20
2017-11-08T22:58:26.286Z,4.77
2017-11-08T23:00:54.232Z,15.03
2017-11-08T23:03:22.817Z,6.43
2017-11-08T23:05:51.489Z,11.17
2017-11-08T23:08:19.325Z,5.70
2017-11-08T23:10:47.337Z,2.40
2017-11-08T23:13:15.903Z,3.63
2017-11-08T23:15:43.690Z,1.83
2017-11-08T23:18:12.351Z,12.20
2017-11-08T23:20:40.180Z,2.13
2017-11-08T23:23:08.064Z,4.07
2017-11-08T23:25:35.888Z,2.93
2017-11-08T23:28:03.745Z,3.63
2017-11-08T23:30:33.141Z,2.10
2017-11-08T23:33:01.745Z,6.40
2017-11-08T23:35:29.680Z,6.87
2017-11-08T23:37:57.477Z,2.50
2017-11-08T23:40:25.420Z,1.60
2017-11-08T23:42:54.029Z,3.07
2017-11-08T23:45:21.846Z,5.00
2017-11-08T23:47:49.805Z,4.00
2017-11-08T23:50:17.617Z,3.97
2017-11-08T23:52:46.190Z,14.83
2017-11-08T23:55:15.043Z,15.23
2017-11-08T23:57:42.941Z,21.13
